sensor_id;sensor_type;location;lat;lon;timestamp;P1;durP1;ratioP1;P2;durP2;ratioP2
67442;SDS011;54311;51.726;5.154;2023-11-21T00:01:37;30.10;;;17.70;;
67442;SDS011;54311;51.726;5.154;2023-11-21T00:04:03;24.92;;;17.77;;
67442;SDS011;54311;51.726;5.154;2023-11-21T00:06:28;25.88;;;17.30;;
67442;SDS011;54311;51.726;5.154;2023-11-21T00:08:55;21.25;;;17.00;;
67442;SDS011;54311;51.726;5.154;2023-11-21T00:11:21;18.95;;;16.75;;
67442;SDS011;54311;51.726;5.154;2023-11-21T00:13:46;23.73;;;16.73;;
67442;SDS011;54311;51.726;5.154;2023-11-21T00:16:11;21.95;;;16.25;;
67442;SDS011;54311;51.726;5.154;2023-11-21T00:18:37;23.42;;;16.65;;
67442;SDS011;54311;51.726;5.154;2023-11-21T00:21:02;31.73;;;17.88;;
67442;SDS011;54311;51.726;5.154;2023-11-21T00:23:28;22.45;;;16.15;;
67442;SDS011;54311;51.726;5.154;2023-11-21T00:25:54;19.88;;;16.88;;
67442;SDS011;54311;51.726;5.154;2023-11-21T00:28:19;21.23;;;16.70;;
67442;SDS011;54311;51.726;5.154;2023-11-21T00:30:44;21.25;;;16.30;;
67442;SDS011;54311;51.726;5.154;2023-11-21T00:33:10;22.58;;;17.42;;
67442;SDS011;54311;51.726;5.154;2023-11-21T00:35:35;21.25;;;17.08;;
67442;SDS011;54311;51.726;5.154;2023-11-21T00:38:01;25.45;;;17.35;;
67442;SDS011;54311;51.726;5.154;2023-11-21T00:40:28;23.38;;;18.35;;
67442;SDS011;54311;51.726;5.154;2023-11-21T00:42:53;22.48;;;18.20;;
67442;SDS011;54311;51.726;5.154;2023-11-21T00:45:19;25.40;;;18.00;;
67442;SDS011;54311;51.726;5.154;2023-11-21T00:47:44;24.52;;;18.88;;
67442;SDS011;54311;51.726;5.154;2023-11-21T00:50:09;25.13;;;18.50;;
67442;SDS011;54311;51.726;5.154;2023-11-21T00:52:35;22.15;;;17.45;;
67442;SDS011;54311;51.726;5.154;2023-11-21T00:55:01;20.58;;;16.63;;
67442;SDS011;54311;51.726;5.154;2023-11-21T00:57:27;22.63;;;17.42;;
67442;SDS011;54311;51.726;5.154;2023-11-21T00:59:53;20.27;;;17.08;;
67442;SDS011;54311;51.726;5.154;2023-11-21T01:02:18;19.15;;;17.13;;
67442;SDS011;54311;51.726;5.154;2023-11-21T01:04:44;20.00;;;16.50;;
67442;SDS011;54311;51.726;5.154;2023-11-21T01:07:09;18.65;;;16.60;;
67442;SDS011;54311;51.726;5.154;2023-11-21T01:09:34;24.67;;;17.05;;
67442;SDS011;54311;51.726;5.154;2023-11-21T01:12:00;21.08;;;18.02;;
67442;SDS011;54311;51.726;5.154;2023-11-21T01:14:25;18.60;;;16.75;;
67442;SDS011;54311;51.726;5.154;2023-11-21T01:16:51;20.48;;;17.27;;
67442;SDS011;54311;51.726;5.154;2023-11-21T01:19:17;23.45;;;17.58;;
67442;SDS011;54311;51.726;5.154;2023-11-21T01:21:42;20.38;;;16.83;;
67442;SDS011;54311;51.726;5.154;2023-11-21T01:24:07;22.42;;;18.30;;
67442;SDS011;54311;51.726;5.154;2023-11-21T01:26:33;22.33;;;17.88;;
67442;SDS011;54311;51.726;5.154;2023-11-21T01:28:59;22.30;;;17.48;;
67442;SDS011;54311;51.726;5.154;2023-11-21T01:31:24;19.75;;;17.30;;
67442;SDS011;54311;51.726;5.154;2023-11-21T01:33:52;21.73;;;16.98;;
67442;SDS011;54311;51.726;5.154;2023-11-21T01:36:17;23.75;;;17.13;;
67442;SDS011;54311;51.726;5.154;2023-11-21T01:38:43;21.05;;;17.45;;
67442;SDS011;54311;51.726;5.154;2023-11-21T01:41:08;22.35;;;18.00;;
67442;SDS011;54311;51.726;5.154;2023-11-21T01:43:36;22.58;;;18.27;;
67442;SDS011;54311;51.726;5.154;2023-11-21T01:46:02;20.98;;;17.00;;
67442;SDS011;54311;51.726;5.154;2023-11-21T01:48:27;18.73;;;16.83;;
67442;SDS011;54311;51.726;5.154;2023-11-21T01:50:53;21.85;;;17.35;;
67442;SDS011;54311;51.726;5.154;2023-11-21T01:53:18;20.45;;;16.50;;
67442;SDS011;54311;51.726;5.154;2023-11-21T01:55:44;20.02;;;17.10;;
67442;SDS011;54311;51.726;5.154;2023-11-21T01:58:10;20.40;;;16.48;;
67442;SDS011;54311;51.726;5.154;2023-11-21T02:00:37;19.70;;;17.00;;
67442;SDS011;54311;51.726;5.154;2023-11-21T02:03:03;19.10;;;16.88;;
67442;SDS011;54311;51.726;5.154;2023-11-21T02:05:29;22.30;;;18.30;;
67442;SDS011;54311;51.726;5.154;2023-11-21T02:07:54;26.08;;;17.90;;
67442;SDS011;54311;51.726;5.154;2023-11-21T02:10:19;23.08;;;18.63;;
67442;SDS011;54311;51.726;5.154;2023-11-21T02:12:48;25.10;;;17.85;;
67442;SDS011;54311;51.726;5.154;2023-11-21T02:15:17;21.83;;;17.25;;
67442;SDS011;54311;51.726;5.154;2023-11-21T02:17:46;23.42;;;16.95;;
67442;SDS011;54311;51.726;5.154;2023-11-21T02:20:14;22.25;;;18.10;;
67442;SDS011;54311;51.726;5.154;2023-11-21T02:22:40;20.52;;;17.95;;
67442;SDS011;54311;51.726;5.154;2023-11-21T02:25:07;20.45;;;17.58;;
67442;SDS011;54311;51.726;5.154;2023-11-21T02:27:32;21.88;;;18.55;;
67442;SDS011;54311;51.726;5.154;2023-11-21T02:29:58;22.48;;;17.35;;
67442;SDS011;54311;51.726;5.154;2023-11-21T02:32:24;25.27;;;18.73;;
67442;SDS011;54311;51.726;5.154;2023-11-21T02:34:51;23.58;;;18.83;;
67442;SDS011;54311;51.726;5.154;2023-11-21T02:37:16;28.40;;;19.35;;
67442;SDS011;54311;51.726;5.154;2023-11-21T02:39:41;28.20;;;19.70;;
67442;SDS011;54311;51.726;5.154;2023-11-21T02:42:07;23.45;;;19.63;;
67442;SDS011;54311;51.726;5.154;2023-11-21T02:44:32;20.58;;;18.38;;
67442;SDS011;54311;51.726;5.154;2023-11-21T02:46:58;21.60;;;19.30;;
67442;SDS011;54311;51.726;5.154;2023-11-21T02:49:23;20.45;;;18.33;;
67442;SDS011;54311;51.726;5.154;2023-11-21T02:51:48;23.13;;;18.92;;
67442;SDS011;54311;51.726;5.154;2023-11-21T02:54:14;19.95;;;17.90;;
67442;SDS011;54311;51.726;5.154;2023-11-21T02:56:39;22.67;;;18.83;;
67442;SDS011;54311;51.726;5.154;2023-11-21T02:59:07;24.90;;;19.02;;
67442;SDS011;54311;51.726;5.154;2023-11-21T03:01:32;19.83;;;17.83;;
67442;SDS011;54311;51.726;5.154;2023-11-21T03:03:58;24.83;;;18.25;;
67442;SDS011;54311;51.726;5.154;2023-11-21T03:06:23;21.23;;;18.88;;
67442;SDS011;54311;51.726;5.154;2023-11-21T03:08:48;21.38;;;18.73;;
67442;SDS011;54311;51.726;5.154;2023-11-21T03:11:14;23.75;;;19.08;;
67442;SDS011;54311;51.726;5.154;2023-11-21T03:13:40;22.52;;;18.55;;
67442;SDS011;54311;51.726;5.154;2023-11-21T03:16:08;20.83;;;18.75;;
67442;SDS011;54311;51.726;5.154;2023-11-21T03:18:35;20.15;;;18.15;;
67442;SDS011;54311;51.726;5.154;2023-11-21T03:21:01;20.27;;;17.50;;
67442;SDS011;54311;51.726;5.154;2023-11-21T03:23:26;22.17;;;18.70;;
67442;SDS011;54311;51.726;5.154;2023-11-21T03:25:51;20.17;;;17.88;;
67442;SDS011;54311;51.726;5.154;2023-11-21T03:28:17;20.08;;;17.75;;
67442;SDS011;54311;51.726;5.154;2023-11-21T03:30:43;20.00;;;17.83;;
67442;SDS011;54311;51.726;5.154;2023-11-21T03:33:08;24.83;;;17.75;;
67442;SDS011;54311;51.726;5.154;2023-11-21T03:35:33;19.13;;;17.20;;
67442;SDS011;54311;51.726;5.154;2023-11-21T03:37:58;23.30;;;17.10;;
67442;SDS011;54311;51.726;5.154;2023-11-21T03:40:24;19.35;;;17.55;;
67442;SDS011;54311;51.726;5.154;2023-11-21T03:42:49;20.80;;;16.98;;
67442;SDS011;54311;51.726;5.154;2023-11-21T03:45:15;20.80;;;18.52;;
67442;SDS011;54311;51.726;5.154;2023-11-21T03:47:41;20.35;;;16.95;;
67442;SDS011;54311;51.726;5.154;2023-11-21T03:50:07;19.45;;;17.42;;
67442;SDS011;54311;51.726;5.154;2023-11-21T03:52:34;21.20;;;17.27;;
67442;SDS011;54311;51.726;5.154;2023-11-21T03:55:00;20.15;;;18.02;;
67442;SDS011;54311;51.726;5.154;2023-11-21T03:57:26;20.63;;;17.27;;
67442;SDS011;54311;51.726;5.154;2023-11-21T03:59:53;20.67;;;17.92;;
67442;SDS011;54311;51.726;5.154;2023-11-21T04:02:21;19.45;;;17.30;;
67442;SDS011;54311;51.726;5.154;2023-11-21T04:04:46;19.65;;;17.40;;
67442;SDS011;54311;51.726;5.154;2023-11-21T04:07:12;20.27;;;18.17;;
67442;SDS011;54311;51.726;5.154;2023-11-21T04:09:38;22.15;;;17.67;;
67442;SDS011;54311;51.726;5.154;2023-11-21T04:12:04;20.35;;;18.00;;
67442;SDS011;54311;51.726;5.154;2023-11-21T04:14:30;19.38;;;16.83;;
67442;SDS011;54311;51.726;5.154;2023-11-21T04:16:55;20.92;;;17.95;;
67442;SDS011;54311;51.726;5.154;2023-11-21T04:19:20;20.73;;;17.70;;
67442;SDS011;54311;51.726;5.154;2023-11-21T04:21:46;24.33;;;18.83;;
67442;SDS011;54311;51.726;5.154;2023-11-21T04:24:11;22.00;;;18.00;;
67442;SDS011;54311;51.726;5.154;2023-11-21T04:26:36;20.38;;;17.60;;
67442;SDS011;54311;51.726;5.154;2023-11-21T04:29:02;18.83;;;16.83;;
67442;SDS011;54311;51.726;5.154;2023-11-21T04:31:28;23.70;;;18.92;;
67442;SDS011;54311;51.726;5.154;2023-11-21T04:33:53;19.42;;;17.23;;
67442;SDS011;54311;51.726;5.154;2023-11-21T04:36:18;20.27;;;18.02;;
67442;SDS011;54311;51.726;5.154;2023-11-21T04:38:44;19.83;;;17.67;;
67442;SDS011;54311;51.726;5.154;2023-11-21T04:41:10;20.05;;;17.98;;
67442;SDS011;54311;51.726;5.154;2023-11-21T04:43:35;23.35;;;17.63;;
67442;SDS011;54311;51.726;5.154;2023-11-21T04:46:00;20.00;;;17.88;;
67442;SDS011;54311;51.726;5.154;2023-11-21T04:48:27;21.08;;;18.63;;
67442;SDS011;54311;51.726;5.154;2023-11-21T04:50:52;26.95;;;18.50;;
67442;SDS011;54311;51.726;5.154;2023-11-21T04:53:17;24.58;;;17.83;;
67442;SDS011;54311;51.726;5.154;2023-11-21T04:55:43;22.73;;;17.90;;
67442;SDS011;54311;51.726;5.154;2023-11-21T04:58:09;19.92;;;17.15;;
67442;SDS011;54311;51.726;5.154;2023-11-21T05:00:34;25.20;;;17.80;;
67442;SDS011;54311;51.726;5.154;2023-11-21T05:03:01;25.55;;;18.63;;
67442;SDS011;54311;51.726;5.154;2023-11-21T05:05:27;21.05;;;17.85;;
67442;SDS011;54311;51.726;5.154;2023-11-21T05:07:52;19.20;;;17.20;;
67442;SDS011;54311;51.726;5.154;2023-11-21T05:10:18;22.70;;;18.05;;
67442;SDS011;54311;51.726;5.154;2023-11-21T05:12:44;19.83;;;16.55;;
67442;SDS011;54311;51.726;5.154;2023-11-21T05:15:09;21.58;;;17.58;;
67442;SDS011;54311;51.726;5.154;2023-11-21T05:17:38;23.52;;;17.85;;
67442;SDS011;54311;51.726;5.154;2023-11-21T05:20:23;21.95;;;17.38;;
67442;SDS011;54311;51.726;5.154;2023-11-21T05:22:49;23.63;;;18.48;;
67442;SDS011;54311;51.726;5.154;2023-11-21T05:25:15;22.42;;;19.00;;
67442;SDS011;54311;51.726;5.154;2023-11-21T05:27:43;24.08;;;18.30;;
67442;SDS011;54311;51.726;5.154;2023-11-21T05:30:09;20.83;;;18.35;;
67442;SDS011;54311;51.726;5.154;2023-11-21T05:32:37;25.02;;;18.40;;
67442;SDS011;54311;51.726;5.154;2023-11-21T05:35:02;24.40;;;19.02;;
67442;SDS011;54311;51.726;5.154;2023-11-21T05:37:28;26.73;;;18.60;;
67442;SDS011;54311;51.726;5.154;2023-11-21T05:39:53;27.90;;;19.75;;
67442;SDS011;54311;51.726;5.154;2023-11-21T05:42:22;34.17;;;21.23;;
67442;SDS011;54311;51.726;5.154;2023-11-21T05:44:48;30.45;;;20.38;;
67442;SDS011;54311;51.726;5.154;2023-11-21T05:47:13;30.02;;;19.60;;
67442;SDS011;54311;51.726;5.154;2023-11-21T05:49:39;26.67;;;20.20;;
67442;SDS011;54311;51.726;5.154;2023-11-21T05:52:04;27.48;;;20.85;;
67442;SDS011;54311;51.726;5.154;2023-11-21T05:54:30;26.23;;;19.83;;
67442;SDS011;54311;51.726;5.154;2023-11-21T05:56:55;34.28;;;22.17;;
67442;SDS011;54311;51.726;5.154;2023-11-21T05:59:21;28.30;;;19.10;;
67442;SDS011;54311;51.726;5.154;2023-11-21T06:01:46;34.38;;;20.90;;
67442;SDS011;54311;51.726;5.154;2023-11-21T06:04:11;32.92;;;20.60;;
67442;SDS011;54311;51.726;5.154;2023-11-21T06:06:37;28.85;;;19.77;;
67442;SDS011;54311;51.726;5.154;2023-11-21T06:09:04;33.38;;;21.08;;
67442;SDS011;54311;51.726;5.154;2023-11-21T06:11:30;31.40;;;21.00;;
67442;SDS011;54311;51.726;5.154;2023-11-21T06:13:56;31.73;;;20.88;;
67442;SDS011;54311;51.726;5.154;2023-11-21T06:16:21;36.20;;;20.63;;
67442;SDS011;54311;51.726;5.154;2023-11-21T06:18:47;29.58;;;20.48;;
67442;SDS011;54311;51.726;5.154;2023-11-21T06:21:12;34.13;;;21.88;;
67442;SDS011;54311;51.726;5.154;2023-11-21T06:23:38;32.58;;;20.23;;
67442;SDS011;54311;51.726;5.154;2023-11-21T06:26:04;27.67;;;19.73;;
67442;SDS011;54311;51.726;5.154;2023-11-21T06:28:30;35.08;;;21.23;;
67442;SDS011;54311;51.726;5.154;2023-11-21T06:30:55;40.97;;;21.55;;
67442;SDS011;54311;51.726;5.154;2023-11-21T06:33:21;26.60;;;21.95;;
67442;SDS011;54311;51.726;5.154;2023-11-21T06:35:46;30.80;;;21.20;;
67442;SDS011;54311;51.726;5.154;2023-11-21T06:38:12;29.48;;;22.15;;
67442;SDS011;54311;51.726;5.154;2023-11-21T06:40:37;27.77;;;22.13;;
67442;SDS011;54311;51.726;5.154;2023-11-21T06:43:03;31.35;;;21.45;;
67442;SDS011;54311;51.726;5.154;2023-11-21T06:45:29;33.85;;;22.40;;
67442;SDS011;54311;51.726;5.154;2023-11-21T06:47:55;28.67;;;21.92;;
67442;SDS011;54311;51.726;5.154;2023-11-21T06:50:20;28.08;;;21.10;;
67442;SDS011;54311;51.726;5.154;2023-11-21T06:52:46;26.85;;;21.52;;
67442;SDS011;54311;51.726;5.154;2023-11-21T06:55:11;28.00;;;21.50;;
67442;SDS011;54311;51.726;5.154;2023-11-21T06:57:36;26.55;;;20.55;;
67442;SDS011;54311;51.726;5.154;2023-11-21T07:00:03;31.10;;;20.48;;
67442;SDS011;54311;51.726;5.154;2023-11-21T07:02:29;30.17;;;21.13;;
67442;SDS011;54311;51.726;5.154;2023-11-21T07:04:55;29.40;;;20.80;;
67442;SDS011;54311;51.726;5.154;2023-11-21T07:07:20;33.72;;;21.42;;
67442;SDS011;54311;51.726;5.154;2023-11-21T07:09:45;27.65;;;20.80;;
67442;SDS011;54311;51.726;5.154;2023-11-21T07:12:11;29.48;;;21.23;;
67442;SDS011;54311;51.726;5.154;2023-11-21T07:14:36;26.30;;;21.13;;
67442;SDS011;54311;51.726;5.154;2023-11-21T07:17:04;29.52;;;21.42;;
67442;SDS011;54311;51.726;5.154;2023-11-21T07:19:29;39.50;;;23.50;;
67442;SDS011;54311;51.726;5.154;2023-11-21T07:21:55;29.85;;;22.13;;
67442;SDS011;54311;51.726;5.154;2023-11-21T07:24:21;29.83;;;22.02;;
67442;SDS011;54311;51.726;5.154;2023-11-21T07:26:48;31.17;;;22.52;;
67442;SDS011;54311;51.726;5.154;2023-11-21T07:29:13;29.95;;;22.27;;
67442;SDS011;54311;51.726;5.154;2023-11-21T07:31:38;36.75;;;22.60;;
67442;SDS011;54311;51.726;5.154;2023-11-21T07:34:04;34.60;;;22.85;;
67442;SDS011;54311;51.726;5.154;2023-11-21T07:36:30;33.88;;;23.63;;
67442;SDS011;54311;51.726;5.154;2023-11-21T07:38:55;37.83;;;22.90;;
67442;SDS011;54311;51.726;5.154;2023-11-21T07:41:20;36.35;;;23.38;;
67442;SDS011;54311;51.726;5.154;2023-11-21T07:43:46;31.42;;;21.40;;
67442;SDS011;54311;51.726;5.154;2023-11-21T07:46:11;47.30;;;22.77;;
67442;SDS011;54311;51.726;5.154;2023-11-21T07:48:38;39.47;;;22.95;;
67442;SDS011;54311;51.726;5.154;2023-11-21T07:51:07;44.60;;;23.15;;
67442;SDS011;54311;51.726;5.154;2023-11-21T07:53:33;32.67;;;22.05;;
67442;SDS011;54311;51.726;5.154;2023-11-21T07:56:03;38.25;;;21.65;;
67442;SDS011;54311;51.726;5.154;2023-11-21T07:58:32;36.50;;;22.17;;
67442;SDS011;54311;51.726;5.154;2023-11-21T08:00:58;36.08;;;21.15;;
67442;SDS011;54311;51.726;5.154;2023-11-21T08:03:24;39.72;;;22.27;;
67442;SDS011;54311;51.726;5.154;2023-11-21T08:05:51;36.63;;;22.67;;
67442;SDS011;54311;51.726;5.154;2023-11-21T08:08:17;38.42;;;23.83;;
67442;SDS011;54311;51.726;5.154;2023-11-21T08:10:43;33.47;;;21.88;;
67442;SDS011;54311;51.726;5.154;2023-11-21T08:13:11;35.95;;;21.75;;
67442;SDS011;54311;51.726;5.154;2023-11-21T08:15:39;32.60;;;21.30;;
67442;SDS011;54311;51.726;5.154;2023-11-21T08:18:05;32.20;;;21.13;;
67442;SDS011;54311;51.726;5.154;2023-11-21T08:20:32;33.47;;;20.73;;
67442;SDS011;54311;51.726;5.154;2023-11-21T08:22:59;33.03;;;20.38;;
67442;SDS011;54311;51.726;5.154;2023-11-21T08:25:25;37.17;;;21.10;;
67442;SDS011;54311;51.726;5.154;2023-11-21T08:27:52;34.58;;;21.38;;
67442;SDS011;54311;51.726;5.154;2023-11-21T08:30:17;35.50;;;20.55;;
67442;SDS011;54311;51.726;5.154;2023-11-21T08:32:44;31.67;;;19.65;;
67442;SDS011;54311;51.726;5.154;2023-11-21T08:35:10;33.38;;;21.08;;
67442;SDS011;54311;51.726;5.154;2023-11-21T08:37:36;27.67;;;18.27;;
67442;SDS011;54311;51.726;5.154;2023-11-21T08:40:04;30.08;;;18.58;;
67442;SDS011;54311;51.726;5.154;2023-11-21T08:42:34;33.08;;;17.88;;
67442;SDS011;54311;51.726;5.154;2023-11-21T08:45:00;30.80;;;19.75;;
67442;SDS011;54311;51.726;5.154;2023-11-21T08:47:25;23.58;;;17.85;;
67442;SDS011;54311;51.726;5.154;2023-11-21T08:49:51;24.35;;;17.30;;
67442;SDS011;54311;51.726;5.154;2023-11-21T08:52:19;25.40;;;16.95;;
67442;SDS011;54311;51.726;5.154;2023-11-21T08:54:48;18.48;;;15.35;;
67442;SDS011;54311;51.726;5.154;2023-11-21T08:57:13;23.58;;;15.95;;
67442;SDS011;54311;51.726;5.154;2023-11-21T08:59:39;19.65;;;15.48;;
67442;SDS011;54311;51.726;5.154;2023-11-21T09:02:04;19.25;;;15.52;;
67442;SDS011;54311;51.726;5.154;2023-11-21T09:04:30;23.17;;;15.25;;
67442;SDS011;54311;51.726;5.154;2023-11-21T09:06:55;15.73;;;13.60;;
67442;SDS011;54311;51.726;5.154;2023-11-21T09:09:20;17.08;;;13.13;;
67442;SDS011;54311;51.726;5.154;2023-11-21T09:11:46;19.25;;;13.55;;
67442;SDS011;54311;51.726;5.154;2023-11-21T09:14:14;15.65;;;13.00;;
67442;SDS011;54311;51.726;5.154;2023-11-21T09:16:41;16.13;;;13.68;;
67442;SDS011;54311;51.726;5.154;2023-11-21T09:19:06;20.20;;;13.80;;
67442;SDS011;54311;51.726;5.154;2023-11-21T09:21:31;19.88;;;13.98;;
67442;SDS011;54311;51.726;5.154;2023-11-21T09:23:58;17.02;;;13.90;;
67442;SDS011;54311;51.726;5.154;2023-11-21T09:26:23;16.95;;;15.05;;
67442;SDS011;54311;51.726;5.154;2023-11-21T09:28:48;16.77;;;13.25;;
67442;SDS011;54311;51.726;5.154;2023-11-21T09:31:14;15.32;;;13.85;;
67442;SDS011;54311;51.726;5.154;2023-11-21T09:33:42;15.18;;;13.70;;
67442;SDS011;54311;51.726;5.154;2023-11-21T09:36:11;17.85;;;14.25;;
67442;SDS011;54311;51.726;5.154;2023-11-21T09:38:38;18.77;;;15.00;;
67442;SDS011;54311;51.726;5.154;2023-11-21T09:41:04;15.60;;;13.88;;
67442;SDS011;54311;51.726;5.154;2023-11-21T09:43:32;16.65;;;13.98;;
67442;SDS011;54311;51.726;5.154;2023-11-21T09:45:59;16.20;;;14.52;;
67442;SDS011;54311;51.726;5.154;2023-11-21T09:48:25;17.63;;;14.18;;
67442;SDS011;54311;51.726;5.154;2023-11-21T09:50:51;15.77;;;13.73;;
67442;SDS011;54311;51.726;5.154;2023-11-21T09:53:19;17.05;;;14.65;;
67442;SDS011;54311;51.726;5.154;2023-11-21T09:55:50;16.83;;;15.02;;
67442;SDS011;54311;51.726;5.154;2023-11-21T09:58:17;18.08;;;14.23;;
67442;SDS011;54311;51.726;5.154;2023-11-21T10:00:44;16.63;;;14.75;;
67442;SDS011;54311;51.726;5.154;2023-11-21T10:03:11;15.95;;;14.32;;
67442;SDS011;54311;51.726;5.154;2023-11-21T10:05:37;17.05;;;14.43;;
67442;SDS011;54311;51.726;5.154;2023-11-21T10:08:09;15.65;;;14.10;;
67442;SDS011;54311;51.726;5.154;2023-11-21T10:10:36;14.20;;;12.80;;
67442;SDS011;54311;51.726;5.154;2023-11-21T10:13:05;15.65;;;13.55;;
67442;SDS011;54311;51.726;5.154;2023-11-21T10:15:33;15.13;;;12.60;;
67442;SDS011;54311;51.726;5.154;2023-11-21T10:17:59;12.45;;;11.07;;
67442;SDS011;54311;51.726;5.154;2023-11-21T10:20:27;12.25;;;10.95;;
67442;SDS011;54311;51.726;5.154;2023-11-21T10:22:54;12.45;;;10.70;;
67442;SDS011;54311;51.726;5.154;2023-11-21T10:25:21;10.73;;;9.68;;
67442;SDS011;54311;51.726;5.154;2023-11-21T10:27:48;11.88;;;9.77;;
67442;SDS011;54311;51.726;5.154;2023-11-21T10:30:17;11.07;;;9.90;;
67442;SDS011;54311;51.726;5.154;2023-11-21T10:32:43;9.90;;;8.85;;
67442;SDS011;54311;51.726;5.154;2023-11-21T10:35:08;10.30;;;9.30;;
67442;SDS011;54311;51.726;5.154;2023-11-21T10:37:39;9.75;;;8.75;;
67442;SDS011;54311;51.726;5.154;2023-11-21T10:40:08;9.45;;;8.32;;
67442;SDS011;54311;51.726;5.154;2023-11-21T10:42:40;9.85;;;8.85;;
67442;SDS011;54311;51.726;5.154;2023-11-21T10:45:06;10.02;;;9.13;;
67442;SDS011;54311;51.726;5.154;2023-11-21T10:47:38;13.02;;;9.02;;
67442;SDS011;54311;51.726;5.154;2023-11-21T10:50:04;10.18;;;9.23;;
67442;SDS011;54311;51.726;5.154;2023-11-21T10:52:30;10.55;;;9.18;;
67442;SDS011;54311;51.726;5.154;2023-11-21T10:54:55;9.77;;;8.93;;
67442;SDS011;54311;51.726;5.154;2023-11-21T10:57:23;9.95;;;9.05;;
67442;SDS011;54311;51.726;5.154;2023-11-21T10:59:50;12.20;;;9.65;;
67442;SDS011;54311;51.726;5.154;2023-11-21T11:02:23;10.68;;;8.68;;
67442;SDS011;54311;51.726;5.154;2023-11-21T11:04:53;10.38;;;8.98;;
67442;SDS011;54311;51.726;5.154;2023-11-21T11:07:25;9.55;;;8.65;;
67442;SDS011;54311;51.726;5.154;2023-11-21T11:09:52;11.10;;;9.82;;
67442;SDS011;54311;51.726;5.154;2023-11-21T11:12:18;10.40;;;9.15;;
67442;SDS011;54311;51.726;5.154;2023-11-21T11:14:44;12.75;;;11.13;;
67442;SDS011;54311;51.726;5.154;2023-11-21T11:17:10;15.18;;;10.90;;
67442;SDS011;54311;51.726;5.154;2023-11-21T11:19:36;11.82;;;9.60;;
67442;SDS011;54311;51.726;5.154;2023-11-21T11:36:51;19.58;;;12.73;;
67442;SDS011;54311;51.726;5.154;2023-11-21T11:41:55;17.30;;;14.05;;
67442;SDS011;54311;51.726;5.154;2023-11-21T11:47:13;20.92;;;16.17;;
67442;SDS011;54311;51.726;5.154;2023-11-21T11:55:01;23.48;;;16.15;;
67442;SDS011;54311;51.726;5.154;2023-11-21T11:57:31;17.60;;;15.43;;
67442;SDS011;54311;51.726;5.154;2023-11-21T12:00:10;21.77;;;16.55;;
67442;SDS011;54311;51.726;5.154;2023-11-21T12:02:53;17.55;;;15.05;;
67442;SDS011;54311;51.726;5.154;2023-11-21T12:05:26;15.10;;;13.38;;
67442;SDS011;54311;51.726;5.154;2023-11-21T12:08:01;15.75;;;13.07;;
67442;SDS011;54311;51.726;5.154;2023-11-21T12:10:28;14.15;;;11.25;;
67442;SDS011;54311;51.726;5.154;2023-11-21T12:12:55;14.23;;;11.35;;
67442;SDS011;54311;51.726;5.154;2023-11-21T12:15:23;12.10;;;10.80;;
67442;SDS011;54311;51.726;5.154;2023-11-21T12:17:49;11.73;;;10.52;;
67442;SDS011;54311;51.726;5.154;2023-11-21T12:20:15;12.35;;;10.75;;
67442;SDS011;54311;51.726;5.154;2023-11-21T12:22:44;10.90;;;9.80;;
67442;SDS011;54311;51.726;5.154;2023-11-21T12:25:12;10.00;;;9.00;;
67442;SDS011;54311;51.726;5.154;2023-11-21T12:27:44;12.80;;;10.00;;
67442;SDS011;54311;51.726;5.154;2023-11-21T12:30:31;10.75;;;9.65;;
67442;SDS011;54311;51.726;5.154;2023-11-21T12:33:00;11.18;;;10.10;;
67442;SDS011;54311;51.726;5.154;2023-11-21T12:35:27;13.73;;;10.98;;
67442;SDS011;54311;51.726;5.154;2023-11-21T12:37:59;19.35;;;14.20;;
67442;SDS011;54311;51.726;5.154;2023-11-21T12:40:24;15.85;;;13.02;;
67442;SDS011;54311;51.726;5.154;2023-11-21T12:42:54;15.07;;;12.88;;
67442;SDS011;54311;51.726;5.154;2023-11-21T12:45:23;21.17;;;15.27;;
67442;SDS011;54311;51.726;5.154;2023-11-21T12:47:51;19.13;;;15.93;;
67442;SDS011;54311;51.726;5.154;2023-11-21T12:50:20;19.42;;;15.23;;
67442;SDS011;54311;51.726;5.154;2023-11-21T12:52:48;20.17;;;16.00;;
67442;SDS011;54311;51.726;5.154;2023-11-21T12:55:16;21.00;;;17.00;;
67442;SDS011;54311;51.726;5.154;2023-11-21T12:57:43;20.25;;;17.00;;
67442;SDS011;54311;51.726;5.154;2023-11-21T13:00:10;20.50;;;15.65;;
67442;SDS011;54311;51.726;5.154;2023-11-21T13:02:41;21.45;;;16.60;;
67442;SDS011;54311;51.726;5.154;2023-11-21T13:05:08;20.08;;;14.93;;
67442;SDS011;54311;51.726;5.154;2023-11-21T13:07:43;16.75;;;14.60;;
67442;SDS011;54311;51.726;5.154;2023-11-21T13:10:12;19.13;;;14.50;;
67442;SDS011;54311;51.726;5.154;2023-11-21T13:12:42;24.10;;;15.23;;
67442;SDS011;54311;51.726;5.154;2023-11-21T13:15:14;20.30;;;15.55;;
67442;SDS011;54311;51.726;5.154;2023-11-21T13:17:42;20.83;;;14.77;;
67442;SDS011;54311;51.726;5.154;2023-11-21T13:20:09;17.77;;;15.15;;
67442;SDS011;54311;51.726;5.154;2023-11-21T13:22:44;21.98;;;15.70;;
67442;SDS011;54311;51.726;5.154;2023-11-21T13:25:10;16.88;;;14.05;;
67442;SDS011;54311;51.726;5.154;2023-11-21T13:27:35;16.77;;;14.70;;
67442;SDS011;54311;51.726;5.154;2023-11-21T13:30:02;16.20;;;14.52;;
67442;SDS011;54311;51.726;5.154;2023-11-21T13:32:28;20.48;;;17.25;;
67442;SDS011;54311;51.726;5.154;2023-11-21T13:34:54;16.33;;;14.15;;
67442;SDS011;54311;51.726;5.154;2023-11-21T13:37:20;17.10;;;13.50;;
67442;SDS011;54311;51.726;5.154;2023-11-21T13:39:45;17.00;;;13.88;;
67442;SDS011;54311;51.726;5.154;2023-11-21T13:42:14;17.15;;;14.88;;
67442;SDS011;54311;51.726;5.154;2023-11-21T13:44:41;16.92;;;13.65;;
67442;SDS011;54311;51.726;5.154;2023-11-21T13:47:11;18.75;;;14.68;;
67442;SDS011;54311;51.726;5.154;2023-11-21T13:49:37;17.08;;;14.00;;
67442;SDS011;54311;51.726;5.154;2023-11-21T13:52:05;18.58;;;14.20;;
67442;SDS011;54311;51.726;5.154;2023-11-21T13:54:33;18.45;;;14.90;;
67442;SDS011;54311;51.726;5.154;2023-11-21T13:56:58;16.77;;;14.82;;
67442;SDS011;54311;51.726;5.154;2023-11-21T13:59:25;16.52;;;13.80;;
67442;SDS011;54311;51.726;5.154;2023-11-21T14:01:53;18.35;;;14.40;;
67442;SDS011;54311;51.726;5.154;2023-11-21T14:04:19;18.27;;;14.55;;
67442;SDS011;54311;51.726;5.154;2023-11-21T14:06:57;16.67;;;14.25;;
67442;SDS011;54311;51.726;5.154;2023-11-21T14:09:25;16.48;;;14.70;;
67442;SDS011;54311;51.726;5.154;2023-11-21T14:11:58;20.35;;;15.00;;
67442;SDS011;54311;51.726;5.154;2023-11-21T14:14:24;18.48;;;14.38;;
67442;SDS011;54311;51.726;5.154;2023-11-21T14:16:51;15.95;;;13.90;;
67442;SDS011;54311;51.726;5.154;2023-11-21T14:19:17;18.00;;;16.10;;
67442;SDS011;54311;51.726;5.154;2023-11-21T14:21:43;16.77;;;14.38;;
67442;SDS011;54311;51.726;5.154;2023-11-21T14:24:09;15.70;;;14.07;;
67442;SDS011;54311;51.726;5.154;2023-11-21T14:26:35;16.85;;;15.00;;
67442;SDS011;54311;51.726;5.154;2023-11-21T14:29:00;20.40;;;15.65;;
67442;SDS011;54311;51.726;5.154;2023-11-21T14:31:26;15.93;;;13.50;;
67442;SDS011;54311;51.726;5.154;2023-11-21T14:33:52;22.52;;;15.57;;
67442;SDS011;54311;51.726;5.154;2023-11-21T14:36:18;17.58;;;15.02;;
67442;SDS011;54311;51.726;5.154;2023-11-21T14:38:43;23.90;;;17.38;;
67442;SDS011;54311;51.726;5.154;2023-11-21T14:41:09;20.70;;;16.70;;
67442;SDS011;54311;51.726;5.154;2023-11-21T14:43:36;20.40;;;16.42;;
67442;SDS011;54311;51.726;5.154;2023-11-21T14:46:03;22.95;;;17.75;;